Time;durP1;ratioP1;P1;durP2;ratioP2;P2;SDS_P1;SDS_P2;PMS_P1;PMS_P2;Temp;Humidity;BMP_temperature;BMP_pressure;BME280_temperature;BME280_humidity;BME280_pressure;Samples;Min_cycle;Max_cycle;Signal;HPM_P1;HPM_P2
2023/05/11 00:01:38;;;;;;;7.60;3.20;;;;;;;10.03;36.71;100636.66;104599;1251;137581;-63
2023/05/11 00:04:05;;;;;;;6.70;3.30;;;;;;;10.03;36.75;100637.18;104772;1254;95895;-63
2023/05/11 00:06:32;;;;;;;6.20;3.40;;;;;;;10.03;36.68;100635.11;104833;1251;110503;-62
2023/05/11 00:08:59;;;;;;;8.90;3.60;;;;;;;10.02;36.71;100633.92;104703;1251;137944;-62
2023/05/11 00:11:26;;;;;;;4.30;3.40;;;;;;;10.00;36.79;100633.09;104806;1252;96136;-62
2023/05/11 00:13:53;;;;;;;8.60;2.70;;;;;;;9.99;36.72;100629.65;104696;1254;137883;-63
2023/05/11 00:16:20;;;;;;;6.10;3.00;;;;;;;9.99;36.53;100638.52;104003;1254;1002400;-63
2023/05/11 00:18:48;;;;;;;7.70;3.20;;;;;;;9.99;36.47;100630.69;104764;1254;110351;-62
2023/05/11 00:21:15;;;;;;;7.40;3.50;;;;;;;9.99;36.47;100629.48;104615;1255;138757;-62
2023/05/11 00:23:42;;;;;;;6.30;3.20;;;;;;;10.00;36.36;100631.20;104793;1254;95967;-62
2023/05/11 00:26:09;;;;;;;6.40;3.00;;;;;;;10.00;36.38;100629.46;104671;1254;138284;-63
2023/05/11 00:28:36;;;;;;;8.30;3.00;;;;;;;9.99;36.45;100633.30;104774;1256;96189;-62
2023/05/11 00:31:03;;;;;;;4.70;2.80;;;;;;;9.98;36.28;100635.75;104800;1255;111563;-62
2023/05/11 00:33:30;;;;;;;5.20;3.50;;;;;;;9.97;36.56;100630.58;104665;1254;138276;-62
2023/05/11 00:35:57;;;;;;;7.10;3.30;;;;;;;9.95;36.57;100639.83;104807;1254;95903;-62
2023/05/11 00:38:24;;;;;;;7.00;3.10;;;;;;;9.92;36.56;100635.73;104659;1256;138226;-62
2023/05/11 00:40:51;;;;;;;5.70;3.10;;;;;;;9.89;36.55;100631.98;104764;1254;95882;-62
2023/05/11 00:43:18;;;;;;;5.80;3.10;;;;;;;9.87;36.68;100633.05;104800;1254;110442;-62
2023/05/11 00:45:46;;;;;;;5.40;3.00;;;;;;;9.84;36.75;100630.52;104667;1253;137472;-62
2023/05/11 00:48:14;;;;;;;6.60;3.00;;;;;;;9.80;36.85;100636.00;104719;1254;95996;-62
2023/05/11 00:50:41;;;;;;;8.40;3.30;;;;;;;9.76;36.69;100627.58;104712;1252;137758;-62
2023/05/11 00:53:08;;;;;;;5.00;3.30;;;;;;;9.73;36.88;100626.27;104791;1256;95691;-62
2023/05/11 00:55:35;;;;;;;7.10;3.30;;;;;;;9.70;36.84;100625.98;104688;1254;137944;-62
2023/05/11 00:58:04;;;;;;;5.50;2.90;;;;;;;9.66;36.89;100621.71;104779;1254;107584;-62
2023/05/11 01:00:31;;;;;;;3.90;3.20;;;;;;;9.63;36.95;100623.69;104806;1254;96226;-62
2023/05/11 01:03:00;;;;;;;4.70;3.00;;;;;;;9.61;37.01;100623.23;104678;1251;137400;-62
2023/05/11 01:05:35;;;;;;;6.50;2.80;;;;;;;9.59;36.97;100618.06;104810;1251;95867;-62
2023/05/11 01:08:12;;;;;;;7.60;3.00;;;;;;;9.57;36.86;100617.25;104712;1251;138348;-62
2023/05/11 01:10:46;;;;;;;7.30;3.40;;;;;;;9.57;36.94;100622.29;104760;1251;106934;-62
2023/05/11 01:13:23;;;;;;;4.80;3.00;;;;;;;9.56;36.97;100616.58;104806;1252;96514;-62
2023/05/11 01:15:52;;;;;;;6.90;3.10;;;;;;;9.55;36.97;100613.66;104700;1254;107428;-62
2023/05/11 01:18:30;;;;;;;5.80;3.10;;;;;;;9.53;37.07;100619.95;104782;1254;96104;-62
2023/05/11 01:21:03;;;;;;;7.50;3.00;;;;;;;9.50;37.01;100616.00;104628;1254;137968;-62
2023/05/11 01:24:09;;;;;;;13.80;3.20;;;;;;;9.49;37.00;100618.98;104772;1255;107287;-62
2023/05/11 01:26:56;;;;;;;6.40;3.20;;;;;;;9.46;36.99;100616.27;104647;1254;138424;-62
2023/05/11 01:29:42;;;;;;;4.50;3.10;;;;;;;9.45;37.02;100616.30;104808;1254;106449;-62
2023/05/11 01:32:15;;;;;;;6.50;3.20;;;;;;;9.44;36.97;100616.30;104596;1251;138536;-62
2023/05/11 01:34:43;;;;;;;5.30;2.70;;;;;;;9.42;37.07;100613.74;104845;1251;110268;-62
2023/05/11 01:37:15;;;;;;;6.10;3.70;;;;;;;9.41;37.05;100611.17;104763;1254;107570;-62
2023/05/11 01:39:48;;;;;;;4.40;3.10;;;;;;;9.39;37.03;100611.05;104697;1251;137749;-62
2023/05/11 01:42:18;;;;;;;4.30;2.60;;;;;;;9.39;36.98;100608.45;104724;1257;107639;-62
2023/05/11 01:44:47;;;;;;;7.80;3.00;;;;;;;9.37;36.98;100610.21;104691;1251;137493;-62
2023/05/11 01:47:15;;;;;;;6.50;2.70;;;;;;;9.37;36.99;100612.48;104841;1254;111180;-61
2023/05/11 01:49:46;;;;;;;5.10;2.90;;;;;;;9.37;36.97;100609.35;104663;1251;137597;-62
2023/05/11 01:52:14;;;;;;;5.30;3.00;;;;;;;9.37;36.92;100610.91;104804;1252;95863;-62
2023/05/11 01:54:44;;;;;;;4.90;3.30;;;;;;;9.36;36.96;100607.64;104823;1251;106431;-61
2023/05/11 01:57:14;;;;;;;3.40;2.60;;;;;;;9.36;36.87;100618.75;104670;1251;137592;-61
2023/05/11 01:59:41;;;;;;;5.30;2.90;;;;;;;9.35;36.91;100610.61;104720;1251;110833;-61
2023/05/11 02:02:09;;;;;;;6.50;3.30;;;;;;;9.35;36.93;100609.41;104547;1257;138319;-62
2023/05/11 02:04:40;;;;;;;4.50;2.80;;;;;;;9.34;37.02;100612.03;104748;1254;95994;-63
2023/05/11 02:07:10;;;;;;;4.60;2.80;;;;;;;9.32;36.93;100612.91;104676;1254;107215;-62
2023/05/11 02:09:39;;;;;;;4.90;3.10;;;;;;;9.32;36.93;100612.75;104727;1251;137846;-62
2023/05/11 02:12:08;;;;;;;6.80;2.90;;;;;;;9.30;36.95;100612.43;104704;1254;110754;-62
2023/05/11 02:14:38;;;;;;;3.60;2.70;;;;;;;9.30;36.82;100610.69;104564;1254;138721;-62
2023/05/11 02:17:06;;;;;;;7.30;3.10;;;;;;;9.30;36.90;100611.05;104766;1254;95960;-63
2023/05/11 02:19:33;;;;;;;3.40;2.50;;;;;;;9.28;36.90;100612.30;104507;1254;137404;-63
2023/05/11 02:22:02;;;;;;;4.70;2.70;;;;;;;9.27;36.79;100613.20;104658;1254;95918;-62
2023/05/11 02:24:30;;;;;;;4.10;2.90;;;;;;;9.26;36.91;100613.06;104658;1254;110455;-62
2023/05/11 02:26:57;;;;;;;4.90;2.90;;;;;;;9.24;37.03;100610.32;104601;1254;137382;-63
2023/05/11 02:29:25;;;;;;;4.60;2.90;;;;;;;9.23;36.95;100613.30;104652;1254;95945;-62
2023/05/11 02:32:02;;;;;;;4.70;2.90;;;;;;;9.21;36.95;100610.39;104647;1254;137672;-62
2023/05/11 02:34:38;;;;;;;8.30;3.30;;;;;;;9.21;36.91;100614.21;104621;1254;95877;-62
2023/05/11 02:37:10;;;;;;;3.90;2.80;;;;;;;9.19;37.01;100609.21;104617;1254;111291;-62
2023/05/11 02:39:38;;;;;;;9.80;3.10;;;;;;;9.17;37.02;100613.95;104478;1257;137916;-62
2023/05/11 02:42:12;;;;;;;6.70;3.00;;;;;;;9.16;36.97;100616.23;104755;1253;95912;-61
2023/05/11 02:44:42;;;;;;;5.20;3.00;;;;;;;9.15;36.99;100613.98;104569;1254;137455;-62
2023/05/11 02:47:12;;;;;;;5.50;2.50;;;;;;;9.14;36.98;100616.77;104726;1254;96088;-62
2023/05/11 02:49:40;;;;;;;7.50;2.90;;;;;;;9.13;37.04;100618.88;104515;1254;137882;-62
2023/05/11 02:52:10;;;;;;;7.60;3.20;;;;;;;9.12;37.04;100616.46;104679;1254;106502;-62
2023/05/11 02:54:42;;;;;;;6.30;2.90;;;;;;;9.10;37.07;100615.80;104597;1254;95956;-62
2023/05/11 02:57:10;;;;;;;6.30;2.90;;;;;;;9.09;37.10;100618.07;104639;1254;138050;-62
2023/05/11 02:59:37;;;;;;;4.50;2.80;;;;;;;9.08;37.12;100617.05;104757;1254;95943;-62
2023/05/11 03:02:04;;;;;;;7.60;2.80;;;;;;;9.08;37.11;100620.70;104582;1253;137442;-62
2023/05/11 03:04:31;;;;;;;4.40;2.80;;;;;;;9.07;37.23;100620.20;104777;1254;106759;-62
2023/05/11 03:06:59;;;;;;;6.10;2.80;;;;;;;9.07;37.24;100623.34;104798;1254;95955;-62
2023/05/11 03:09:26;;;;;;;4.20;2.70;;;;;;;9.06;37.40;100622.83;104691;1254;137219;-63
2023/05/11 03:11:53;;;;;;;5.70;2.80;;;;;;;9.03;37.44;100625.66;104776;1253;96024;-63
2023/05/11 03:14:21;;;;;;;7.70;3.10;;;;;;;9.00;37.38;100621.39;104690;1251;137594;-62
2023/05/11 03:16:49;;;;;;;8.20;3.00;;;;;;;8.99;37.37;100620.20;104015;1254;108182;-62
2023/05/11 03:19:18;;;;;;;8.40;3.50;;;;;;;8.98;37.57;100623.17;103602;1256;97663;-62
2023/05/11 03:21:46;;;;;;;6.00;2.90;;;;;;;8.95;37.72;100627.89;103450;1251;137143;-62
2023/05/11 03:24:13;;;;;;;7.10;3.00;;;;;;;8.94;37.72;100631.05;103607;1251;97861;-62
2023/05/11 03:26:43;;;;;;;6.40;3.40;;;;;;;8.91;37.88;100628.32;103408;1251;137688;-62
2023/05/11 03:29:12;;;;;;;4.90;3.10;;;;;;;8.89;37.97;100633.05;104393;1253;108049;-63
2023/05/11 03:31:39;;;;;;;5.20;2.80;;;;;;;8.85;38.03;100634.16;103461;1251;137567;-63
2023/05/11 03:34:06;;;;;;;4.10;2.80;;;;;;;8.84;38.12;100635.58;103560;1251;108347;-62
2023/05/11 03:36:38;;;;;;;5.20;2.80;;;;;;;8.83;38.10;100635.25;103523;1251;97780;-62
2023/05/11 03:39:14;;;;;;;4.60;3.10;;;;;;;8.83;38.23;100641.67;103452;1251;137255;-62
2023/05/11 03:41:44;;;;;;;5.80;3.00;;;;;;;8.81;38.37;100642.76;103515;1251;108082;-62
2023/05/11 03:44:14;;;;;;;4.40;2.80;;;;;;;8.79;38.58;100641.02;103540;1251;137519;-62
2023/05/11 03:46:44;;;;;;;4.20;3.00;;;;;;;8.78;38.59;100647.29;103538;1251;107836;-62
2023/05/11 03:49:13;;;;;;;7.30;3.50;;;;;;;8.78;38.59;100651.44;103527;1251;97924;-62
2023/05/11 03:51:41;;;;;;;6.40;3.10;;;;;;;8.78;38.72;100651.95;104752;1251;137071;-62
2023/05/11 03:54:09;;;;;;;7.40;3.20;;;;;;;8.79;38.66;100648.66;104001;1251;107302;-62
2023/05/11 03:56:40;;;;;;;7.70;3.20;;;;;;;8.81;38.66;100650.04;103516;1251;137452;-62
2023/05/11 03:59:07;;;;;;;7.30;3.90;;;;;;;8.83;38.73;100655.37;104079;1251;106923;-62
2023/05/11 04:01:34;;;;;;;6.90;3.40;;;;;;;8.85;38.66;100655.16;104728;1250;139118;-63
2023/05/11 04:04:02;;;;;;;8.20;3.70;;;;;;;8.87;38.77;100658.23;103599;1254;111342;-63
2023/05/11 04:06:30;;;;;;;8.10;3.90;;;;;;;8.88;38.73;100657.87;103506;1257;108137;-62
2023/05/11 04:09:13;;;;;;;7.50;3.70;;;;;;;8.88;39.09;100659.77;103484;1251;137844;-62
2023/05/11 04:11:41;;;;;;;8.00;3.90;;;;;;;8.86;39.06;100657.38;103731;1251;106864;-62
2023/05/11 04:14:07;;;;;;;9.20;3.50;;;;;;;8.88;39.01;100660.46;104777;1251;137997;-63
2023/05/11 04:16:35;;;;;;;7.90;3.40;;;;;;;8.89;39.15;100664.45;103651;1251;111242;-62
2023/05/11 04:19:02;;;;;;;6.40;3.50;;;;;;;8.89;38.96;100659.41;103439;1256;107576;-62
2023/05/11 04:21:29;;;;;;;6.30;3.70;;;;;;;8.91;39.15;100655.20;103427;1256;137466;-62
2023/05/11 04:23:56;;;;;;;5.80;3.50;;;;;;;8.93;39.09;100664.70;103547;1251;108731;-62
2023/05/11 04:26:23;;;;;;;6.40;3.80;;;;;;;8.95;38.97;100665.02;104749;1251;137656;-62
2023/05/11 04:28:51;;;;;;;6.10;3.60;;;;;;;8.98;39.01;100663.23;104473;1253;110201;-62
2023/05/11 04:31:19;;;;;;;10.30;4.00;;;;;;;9.04;38.89;100663.45;103517;1251;108320;-62
2023/05/11 04:33:47;;;;;;;11.40;3.30;;;;;;;9.13;38.80;100661.20;103820;1251;137793;-62
2023/05/11 04:36:15;;;;;;;7.50;3.50;;;;;;;9.21;38.80;100666.44;103850;1251;106700;-62
2023/05/11 04:38:42;;;;;;;9.60;3.40;;;;;;;9.27;38.54;100660.73;103432;1256;138296;-62
2023/05/11 04:41:10;;;;;;;6.50;3.80;;;;;;;9.35;38.53;100661.96;103485;1252;111538;-62
2023/05/11 04:43:38;;;;;;;6.90;4.10;;;;;;;9.47;38.49;100662.95;103325;1251;138306;-62
2023/05/11 04:46:07;;;;;;;10.30;3.90;;;;;;;9.52;38.52;100664.75;103450;1251;97825;-61
2023/05/11 04:48:34;;;;;;;5.20;3.60;;;;;;;9.60;38.40;100665.27;103513;1251;107513;-62
2023/05/11 04:51:05;;;;;;;4.70;3.20;;;;;;;9.67;38.31;100665.28;103367;1254;137756;-62
2023/05/11 04:53:37;;;;;;;8.60;4.00;;;;;;;9.75;38.14;100667.55;104681;1251;110807;-61
2023/05/11 04:56:05;;;;;;;8.20;3.50;;;;;;;9.83;38.16;100670.30;103374;1257;137849;-61
2023/05/11 04:58:35;;;;;;;7.80;3.60;;;;;;;9.92;37.98;100670.30;104806;1251;95944;-62
2023/05/11 05:01:02;;;;;;;7.00;3.30;;;;;;;10.03;37.90;100670.56;104859;1251;107492;-61
2023/05/11 05:03:29;;;;;;;8.50;3.90;;;;;;;10.18;37.95;100671.27;103936;1251;138539;-61
2023/05/11 05:05:56;;;;;;;5.80;3.60;;;;;;;10.35;37.83;100670.70;104446;1251;111160;-62
2023/05/11 05:08:23;;;;;;;6.10;3.90;;;;;;;10.62;37.75;100672.98;103383;1251;137806;-62
2023/05/11 05:10:51;;;;;;;12.80;4.10;;;;;;;11.27;37.42;100667.89;103493;1251;98112;-62
2023/05/11 05:13:18;;;;;;;6.20;3.30;;;;;;;12.96;35.90;100668.65;103489;1253;107107;-62
2023/05/11 05:15:45;;;;;;;9.30;3.50;;;;;;;15.10;33.93;100669.77;103365;1251;137645;-62
2023/05/11 05:18:12;;;;;;;9.80;3.80;;;;;;;17.19;31.89;100664.05;103554;1251;111583;-62
2023/05/11 05:20:40;;;;;;;6.90;3.30;;;;;;;19.05;29.22;100657.04;103431;1251;137958;-62
2023/05/11 05:23:08;;;;;;;8.40;3.00;;;;;;;20.73;27.68;100649.60;103502;1256;98298;-62
2023/05/11 05:25:35;;;;;;;7.00;3.00;;;;;;;22.18;25.39;100646.39;103437;1250;138629;-62
2023/05/11 05:28:02;;;;;;;7.90;2.90;;;;;;;23.34;23.93;100643.73;103573;1256;97879;-62
2023/05/11 05:30:29;;;;;;;7.00;2.80;;;;;;;24.09;22.77;100646.20;103532;1256;111818;-62
2023/05/11 05:32:56;;;;;;;6.90;2.70;;;;;;;25.14;22.86;100634.70;103453;1252;137987;-62
2023/05/11 05:35:24;;;;;;;5.60;2.90;;;;;;;26.46;21.27;100634.91;103557;1256;97764;-62
2023/05/11 05:37:52;;;;;;;5.80;2.60;;;;;;;27.13;19.83;100633.49;103553;1256;137881;-62
2023/05/11 05:40:19;;;;;;;9.00;2.80;;;;;;;27.71;19.32;100638.60;103526;1256;97958;-62
2023/05/11 05:42:50;;;;;;;6.30;2.80;;;;;;;27.81;17.42;100638.36;103403;1253;113127;-62
2023/05/11 05:45:20;;;;;;;6.20;2.50;;;;;;;27.70;17.65;100641.72;103274;1254;137870;-62
2023/05/11 05:47:50;;;;;;;6.40;2.70;;;;;;;28.06;18.07;100644.36;103565;1256;97786;-62
2023/05/11 05:50:18;;;;;;;7.40;2.60;;;;;;;28.75;17.91;100638.84;103364;1257;137840;-63
2023/05/11 05:52:45;;;;;;;8.20;2.40;;;;;;;29.40;17.28;100641.60;103883;1251;96729;-63
2023/05/11 05:55:13;;;;;;;7.20;2.80;;;;;;;29.95;16.65;100635.92;103714;1254;111883;-63
2023/05/11 05:57:40;;;;;;;6.20;3.00;;;;;;;30.20;16.41;100637.80;103333;1257;138231;-61
2023/05/11 06:00:11;;;;;;;7.60;2.50;;;;;;;30.85;16.09;100642.23;103572;1251;98876;-62
2023/05/11 06:02:41;;;;;;;6.10;2.40;;;;;;;31.28;15.67;100638.01;103523;1250;175272;-62
2023/05/11 06:05:15;;;;;;;6.10;2.40;;;;;;;31.75;15.56;100643.30;103570;1251;97877;-62
2023/05/11 06:07:43;;;;;;;7.50;2.70;;;;;;;32.56;15.61;100636.89;103337;1253;137738;-62
2023/05/11 06:10:20;;;;;;;6.50;2.60;;;;;;;32.95;13.96;100638.88;103561;1253;107743;-62
2023/05/11 06:12:48;;;;;;;5.30;2.60;;;;;;;32.71;14.23;100638.89;103555;1251;97669;-62
2023/05/11 06:15:16;;;;;;;5.90;2.50;;;;;;;32.75;14.21;100641.32;103467;1253;137775;-62
2023/05/11 06:17:46;;;;;;;4.50;2.20;;;;;;;32.86;13.86;100639.28;103483;1251;97797;-62
2023/05/11 06:20:14;;;;;;;7.60;2.40;;;;;;;32.83;13.48;100643.08;103443;1251;137734;-61
2023/05/11 06:22:41;;;;;;;8.80;2.40;;;;;;;32.68;13.34;100650.42;103521;1252;100187;-62
2023/05/11 06:25:09;;;;;;;8.10;2.50;;;;;;;32.55;13.37;100647.65;103765;1250;97804;-62
2023/05/11 06:27:37;;;;;;;10.20;2.40;;;;;;;32.53;13.17;100651.52;103448;1256;137816;-62
2023/05/11 06:30:05;;;;;;;7.90;2.30;;;;;;;32.35;13.25;100648.56;103509;1251;98244;-62
2023/05/11 06:32:34;;;;;;;10.70;3.00;;;;;;;32.56;13.29;100649.36;104470;1251;137942;-62
2023/05/11 06:35:01;;;;;;;9.00;2.20;;;;;;;32.65;12.73;100648.77;103412;1251;101046;-62
2023/05/11 06:37:31;;;;;;;3.80;2.20;;;;;;;32.57;12.95;100651.41;103364;1253;137968;-63
2023/05/11 06:39:59;;;;;;;7.80;2.50;;;;;;;32.27;12.55;100648.42;103538;1251;107716;-63
2023/05/11 06:42:26;;;;;;;4.50;2.10;;;;;;;32.02;12.60;100648.30;103465;1251;97800;-63
2023/05/11 06:45:03;;;;;;;6.40;2.30;;;;;;;31.87;12.83;100651.86;103409;1251;137821;-63
2023/05/11 06:47:32;;;;;;;3.90;2.10;;;;;;;32.00;12.93;100652.85;103606;1253;107239;-63
2023/05/11 06:49:59;;;;;;;5.00;2.00;;;;;;;31.76;12.08;100657.60;103448;1251;137996;-63
2023/05/11 06:52:27;;;;;;;7.70;2.60;;;;;;;31.28;12.66;100657.73;103521;1251;107936;-63
2023/05/11 06:54:55;;;;;;;5.10;2.10;;;;;;;31.38;13.29;100656.38;103561;1250;97811;-62
2023/05/11 06:57:22;;;;;;;4.60;2.30;;;;;;;31.46;12.58;100654.58;103425;1251;137622;-63
2023/05/11 06:59:49;;;;;;;7.50;2.10;;;;;;;31.28;12.43;100654.58;103562;1251;106299;-62
2023/05/11 07:02:16;;;;;;;6.10;2.20;;;;;;;30.84;12.47;100658.40;103404;1250;137796;-62
2023/05/11 07:04:43;;;;;;;6.00;2.00;;;;;;;30.69;12.73;100661.80;103534;1251;108320;-62
2023/05/11 07:07:11;;;;;;;6.60;2.10;;;;;;;30.75;12.68;100660.65;103529;1256;97695;-62
2023/05/11 07:09:38;;;;;;;8.90;1.90;;;;;;;30.60;12.72;100664.02;103960;1250;137658;-63
2023/05/11 07:12:09;;;;;;;4.50;2.20;;;;;;;30.59;12.46;100664.87;103713;1253;109293;-62
2023/05/11 07:14:36;;;;;;;6.90;2.00;;;;;;;30.26;12.39;100665.45;103558;1250;137924;-62
2023/05/11 07:17:03;;;;;;;5.30;2.00;;;;;;;30.06;12.58;100659.50;103590;1255;108612;-62
2023/05/11 07:19:30;;;;;;;5.20;1.90;;;;;;;29.87;12.60;100657.77;103395;1251;137950;-62
2023/05/11 07:21:57;;;;;;;9.50;2.30;;;;;;;29.88;12.99;100649.44;103489;1251;111182;-64
2023/05/11 07:24:25;;;;;;;3.50;1.70;;;;;;;30.07;12.77;100651.13;103520;1250;107929;-63
2023/05/11 07:26:54;;;;;;;5.50;1.80;;;;;;;30.14;13.03;100644.11;103396;1251;137784;-62
2023/05/11 07:29:21;;;;;;;5.30;2.00;;;;;;;30.67;13.34;100645.71;104386;1251;107638;-64
2023/05/11 07:31:48;;;;;;;6.20;2.10;;;;;;;31.47;13.37;100642.95;103489;1256;138158;-63
2023/05/11 07:34:15;;;;;;;8.80;1.80;;;;;;;31.97;11.68;100643.64;103529;1251;111298;-63
2023/05/11 07:36:42;;;;;;;9.40;2.10;;;;;;;31.51;11.45;100646.14;103490;1251;108106;-63
2023/05/11 07:39:10;;;;;;;7.40;1.70;;;;;;;31.19;11.90;100646.99;103438;1251;138050;-63
2023/05/11 07:41:37;;;;;;;6.90;2.10;;;;;;;30.97;11.22;100650.09;103625;1250;107566;-63
2023/05/11 07:44:04;;;;;;;7.10;1.60;;;;;;;30.44;11.61;100644.81;103405;1251;138072;-63
2023/05/11 07:46:31;;;;;;;10.40;2.20;;;;;;;30.25;11.70;100652.44;103547;1250;111835;-63
2023/05/11 07:48:59;;;;;;;4.30;1.60;;;;;;;29.80;11.86;100646.73;103473;1250;108223;-63
2023/05/11 07:51:44;;;;;;;9.60;1.70;;;;;;;29.38;11.87;100644.70;103420;1250;137985;-63
2023/05/11 07:54:11;;;;;;;3.70;2.00;;;;;;;28.87;12.35;100647.68;103450;1254;108587;-63
2023/05/11 07:56:38;;;;;;;8.90;2.40;;;;;;;28.80;12.18;100635.82;103479;1251;138084;-63
2023/05/11 07:59:06;;;;;;;9.10;2.00;;;;;;;28.57;12.14;100659.83;103559;1251;110918;-64
2023/05/11 08:01:33;;;;;;;5.50;1.90;;;;;;;28.14;12.45;100655.42;103487;1251;138099;-64
2023/05/11 08:04:00;;;;;;;6.30;2.20;;;;;;;28.26;12.79;100648.48;103567;1255;97784;-64
2023/05/11 08:06:27;;;;;;;8.80;1.80;;;;;;;28.38;12.50;100655.52;103595;1251;108520;-63
2023/05/11 08:08:55;;;;;;;7.20;1.80;;;;;;;28.13;12.74;100658.17;103419;1250;137778;-64
2023/05/11 08:11:22;;;;;;;9.30;2.00;;;;;;;27.96;12.91;100650.05;103474;1251;111671;-64
2023/05/11 08:13:50;;;;;;;6.20;1.80;;;;;;;27.82;12.91;100665.95;103811;1251;138921;-64
2023/05/11 08:16:17;;;;;;;6.80;2.20;;;;;;;27.49;13.29;100648.02;103801;1251;97787;-64
2023/05/11 08:18:44;;;;;;;6.60;1.80;;;;;;;27.12;13.31;100653.20;103544;1250;107741;-64
2023/05/11 08:21:11;;;;;;;4.20;1.60;;;;;;;26.85;13.39;100652.39;103430;1254;137751;-63
2023/05/11 08:23:38;;;;;;;7.30;1.90;;;;;;;26.78;13.74;100648.03;103513;1250;111156;-63
2023/05/11 08:26:06;;;;;;;5.50;1.80;;;;;;;26.61;13.59;100646.80;103511;1254;138001;-63
2023/05/11 08:28:33;;;;;;;7.10;2.00;;;;;;;26.23;14.13;100640.23;103786;1250;97728;-63
2023/05/11 08:31:00;;;;;;;7.80;2.00;;;;;;;25.92;14.32;100636.89;103821;1254;107596;-63
2023/05/11 08:33:28;;;;;;;7.80;2.00;;;;;;;26.00;14.67;100636.48;103359;1251;137892;-63
2023/05/11 08:35:59;;;;;;;5.00;1.80;;;;;;;26.30;14.97;100633.58;103582;1251;111898;-63
2023/05/11 08:38:26;;;;;;;4.60;2.00;;;;;;;26.72;14.67;100630.97;103392;1251;137928;-63
2023/05/11 08:40:54;;;;;;;12.60;2.20;;;;;;;26.78;14.24;100632.48;103530;1251;97880;-63
2023/05/11 08:43:22;;;;;;;4.30;1.80;;;;;;;26.42;13.97;100645.30;103550;1254;108726;-63
2023/05/11 08:45:55;;;;;;;4.50;1.90;;;;;;;26.12;14.12;100630.77;103474;1250;97784;-63
2023/05/11 08:48:23;;;;;;;8.80;1.90;;;;;;;26.24;14.44;100629.10;103576;1250;110947;-63
2023/05/11 08:50:51;;;;;;;7.90;2.10;;;;;;;26.34;14.59;100627.83;103423;1251;139398;-63
2023/05/11 08:53:18;;;;;;;7.70;1.80;;;;;;;26.43;14.16;100631.43;103539;1251;97781;-63
2023/05/11 08:55:46;;;;;;;4.10;1.70;;;;;;;26.43;14.27;100629.89;103963;1250;137890;-64
2023/05/11 08:58:18;;;;;;;4.80;1.90;;;;;;;26.22;13.91;100641.92;103714;1251;97786;-63
2023/05/11 09:00:46;;;;;;;7.70;1.80;;;;;;;25.79;14.37;100625.05;103624;1255;110776;-64
2023/05/11 09:03:13;;;;;;;6.80;2.10;;;;;;;25.51;15.06;100627.15;103497;1252;138087;-64
2023/05/11 09:05:42;;;;;;;4.10;1.70;;;;;;;25.33;14.60;100623.77;103546;1253;97804;-63
2023/05/11 09:08:10;;;;;;;6.20;1.90;;;;;;;24.80;14.97;100627.23;103607;1251;137663;-63
2023/05/11 09:10:38;;;;;;;3.00;1.70;;;;;;;24.47;15.33;100632.83;103547;1253;97800;-63
2023/05/11 09:13:06;;;;;;;6.80;2.30;;;;;;;24.43;15.65;100631.54;103569;1254;111239;-63
2023/05/11 09:15:33;;;;;;;7.00;1.90;;;;;;;24.39;15.55;100636.80;103417;1254;137813;-63
2023/05/11 09:18:03;;;;;;;3.90;1.70;;;;;;;24.22;15.53;100633.59;103530;1253;97813;-63
2023/05/11 09:20:32;;;;;;;7.80;2.20;;;;;;;23.84;15.76;100637.96;103473;1256;137653;-63
2023/05/11 09:23:00;;;;;;;2.40;1.50;;;;;;;23.77;16.01;100629.83;103595;1256;98093;-63
2023/05/11 09:25:31;;;;;;;8.90;1.90;;;;;;;23.55;16.23;100633.72;103575;1253;111709;-63
2023/05/11 09:27:59;;;;;;;8.20;2.30;;;;;;;23.41;16.22;100634.80;103536;1252;107736;-64
2023/05/11 09:30:27;;;;;;;4.70;1.90;;;;;;;23.25;16.11;100627.73;103744;1256;97759;-63
2023/05/11 09:32:55;;;;;;;3.80;1.90;;;;;;;23.30;16.32;100628.14;103391;1253;137831;-63
2023/05/11 09:35:24;;;;;;;4.40;1.70;;;;;;;23.38;16.12;100644.88;103508;1253;98022;-64
2023/05/11 09:38:09;;;;;;;7.00;2.10;;;;;;;23.17;16.12;100642.45;103425;1252;137881;-63
2023/05/11 09:40:37;;;;;;;9.10;1.90;;;;;;;23.04;16.58;100636.54;103464;1252;107117;-63
2023/05/11 09:43:15;;;;;;;9.50;2.20;;;;;;;22.90;16.64;100648.83;103486;1253;97826;-63
2023/05/11 09:45:44;;;;;;;3.20;1.80;;;;;;;22.77;16.91;100638.23;103395;1251;137619;-63
2023/05/11 09:48:24;;;;;;;5.40;1.80;;;;;;;22.84;17.33;100630.27;103513;1252;97869;-63
2023/05/11 09:50:58;;;;;;;6.00;1.80;;;;;;;23.08;17.21;100619.71;103500;1251;137890;-63
2023/05/11 09:53:36;;;;;;;9.50;2.20;;;;;;;23.20;17.29;100622.55;103421;1252;108708;-63
2023/05/11 09:56:03;;;;;;;4.80;1.60;;;;;;;23.48;17.28;100618.83;103392;1253;139050;-62
2023/05/11 09:58:47;;;;;;;4.80;1.90;;;;;;;23.81;17.10;100616.05;103549;1254;107311;-63
2023/05/11 10:01:15;;;;;;;5.90;1.60;;;;;;;24.01;16.84;100622.00;103554;1256;97669;-62
2023/05/11 10:03:52;;;;;;;3.20;1.60;;;;;;;23.98;16.74;100617.33;103667;1250;137749;-62
2023/05/11 10:06:42;;;;;;;2.50;1.60;;;;;;;24.02;16.84;100610.23;103807;1251;107494;-63
2023/05/11 10:09:13;;;;;;;3.80;2.00;;;;;;;23.91;16.64;100610.90;103518;1254;138078;-62
2023/05/11 10:11:45;;;;;;;3.90;1.70;;;;;;;23.67;16.81;100610.94;103620;1251;107992;-64
2023/05/11 10:14:14;;;;;;;2.30;1.70;;;;;;;23.49;17.04;100609.16;103413;1251;137787;-63
2023/05/11 10:16:43;;;;;;;7.50;2.00;;;;;;;23.32;16.97;100611.05;103615;1251;111932;-63
2023/05/11 10:19:12;;;;;;;4.70;2.10;;;;;;;23.06;17.24;100597.55;103718;1250;108072;-62
2023/05/11 10:21:41;;;;;;;6.30;2.00;;;;;;;22.84;17.52;100585.39;104119;1255;138193;-62
2023/05/11 10:24:12;;;;;;;9.30;2.10;;;;;;;22.66;17.68;100596.77;103724;1251;108599;-64
2023/05/11 10:26:40;;;;;;;3.90;1.90;;;;;;;22.56;18.04;100596.23;103448;1256;137948;-63
2023/05/11 10:29:09;;;;;;;3.90;1.60;;;;;;;22.72;18.15;100593.05;103528;1255;111217;-63
2023/05/11 10:31:37;;;;;;;5.20;2.10;;;;;;;22.80;17.79;100586.40;103382;1251;138206;-63
2023/05/11 10:34:05;;;;;;;2.40;2.00;;;;;;;22.64;17.59;100590.13;103358;1251;98038;-63
2023/05/11 10:36:33;;;;;;;7.60;2.20;;;;;;;22.49;17.81;100586.58;103531;1252;107952;-64
2023/05/11 10:39:00;;;;;;;3.10;1.70;;;;;;;22.44;18.14;100584.09;103444;1253;137854;-62
2023/05/11 10:41:39;;;;;;;5.60;1.90;;;;;;;22.34;18.04;100585.02;103555;1253;112669;-63
2023/05/11 10:44:24;;;;;;;6.90;2.30;;;;;;;22.15;18.53;100591.45;103409;1254;137965;-63
2023/05/11 10:47:06;;;;;;;3.50;1.70;;;;;;;21.97;18.15;100610.07;103499;1253;98007;-62
2023/05/11 10:50:03;;;;;;;4.80;1.80;;;;;;;21.58;18.34;100590.13;103397;1251;137869;-63
2023/05/11 10:52:48;;;;;;;6.60;2.10;;;;;;;21.41;18.87;100588.52;103517;1253;97791;-63
2023/05/11 10:55:27;;;;;;;4.80;1.90;;;;;;;21.38;18.80;100576.74;103555;1252;111131;-63
2023/05/11 10:58:07;;;;;;;4.30;1.80;;;;;;;21.06;18.45;100586.19;103506;1253;108030;-62
2023/05/11 11:01:05;;;;;;;7.70;2.00;;;;;;;20.66;19.00;100588.30;103496;1254;97761;-64
2023/05/11 11:03:32;;;;;;;5.60;1.80;;;;;;;20.43;19.40;100603.83;103291;1256;137944;-65
2023/05/11 11:06:00;;;;;;;4.90;1.80;;;;;;;20.12;19.55;100606.73;103511;1253;97861;-62
2023/05/11 11:08:28;;;;;;;4.80;1.90;;;;;;;19.84;19.92;100593.43;103642;1252;137762;-64
2023/05/11 11:10:55;;;;;;;5.00;1.70;;;;;;;19.73;20.13;100579.81;103915;1256;108391;-63
2023/05/11 11:13:23;;;;;;;3.40;2.10;;;;;;;19.74;20.53;100578.20;104146;1254;97810;-62
2023/05/11 11:16:10;;;;;;;7.20;2.10;;;;;;;19.65;20.19;100588.48;104018;1253;137705;-61
2023/05/11 11:18:42;;;;;;;6.10;2.10;;;;;;;19.52;20.31;100575.52;104030;1253;96581;-61
2023/05/11 11:21:14;;;;;;;5.30;2.10;;;;;;;19.55;20.60;100591.21;103977;1253;137970;-63
2023/05/11 11:23:47;;;;;;;2.70;1.70;;;;;;;19.50;20.82;100579.36;103507;1253;109369;-64
2023/05/11 11:26:17;;;;;;;2.60;2.00;;;;;;;19.56;20.96;100575.30;103606;1256;141004;-63